createdAt,value
2018-03-21T00:02:21.453Z,2.67
2018-03-21T00:04:49.755Z,2.44
2018-03-21T00:07:18.035Z,2.10
2018-03-21T00:09:46.351Z,1.87
2018-03-21T00:12:14.620Z,1.80
2018-03-21T00:14:43.708Z,1.88
2018-03-21T00:17:11.967Z,1.95
2018-03-21T00:19:40.240Z,1.70
2018-03-21T00:22:08.501Z,1.85
2018-03-21T00:24:36.759Z,2.01
2018-03-21T00:27:05.041Z,2.11
2018-03-21T00:29:33.306Z,2.08
2018-03-21T00:32:01.587Z,2.02
2018-03-21T00:34:29.864Z,2.08
2018-03-21T00:36:58.136Z,2.30
2018-03-21T00:39:26.534Z,2.36
2018-03-21T00:41:54.844Z,2.43
2018-03-21T00:44:23.104Z,2.53
2018-03-21T00:46:51.400Z,2.57
2018-03-21T00:49:19.649Z,2.73
2018-03-21T00:51:47.944Z,2.64
2018-03-21T00:54:16.261Z,2.56
2018-03-21T00:56:44.558Z,2.53
2018-03-21T00:59:12.837Z,2.56
2018-03-21T01:01:41.160Z,2.45
2018-03-21T01:04:09.460Z,2.53
2018-03-21T01:06:38.007Z,2.65
2018-03-21T01:09:06.257Z,2.66
2018-03-21T01:11:34.539Z,2.61
2018-03-21T01:14:02.803Z,2.47
2018-03-21T01:16:31.103Z,2.44
2018-03-21T01:18:59.353Z,2.41
2018-03-21T01:21:27.640Z,2.55
2018-03-21T01:23:55.911Z,2.36
2018-03-21T01:26:24.193Z,2.22
2018-03-21T01:28:52.493Z,2.20
2018-03-21T01:31:20.762Z,2.18
2018-03-21T01:33:49.040Z,2.12
2018-03-21T01:36:17.297Z,2.19
2018-03-21T01:38:45.600Z,2.34
2018-03-21T01:41:13.868Z,2.21
2018-03-21T01:43:42.169Z,2.07
2018-03-21T01:46:10.436Z,2.02
2018-03-21T01:48:38.733Z,1.99
2018-03-21T01:51:07.048Z,1.96
2018-03-21T01:53:35.716Z,1.91
2018-03-21T01:56:04.757Z,1.93
2018-03-21T01:58:33.041Z,1.96
2018-03-21T02:01:01.309Z,1.84
2018-03-21T02:03:29.612Z,1.78
2018-03-21T02:05:57.885Z,1.77
2018-03-21T02:08:26.152Z,1.65
2018-03-21T02:10:54.415Z,1.58
2018-03-21T02:13:22.704Z,1.63
2018-03-21T02:15:50.977Z,1.67
2018-03-21T02:18:19.280Z,1.57
2018-03-21T02:20:47.551Z,1.71
2018-03-21T02:23:15.832Z,1.68
2018-03-21T02:25:44.121Z,1.59
2018-03-21T02:28:12.487Z,1.58
2018-03-21T02:30:40.851Z,1.54
2018-03-21T02:33:09.044Z,1.39
2018-03-21T02:35:37.327Z,1.22
2018-03-21T02:38:05.588Z,0.97
2018-03-21T02:40:33.891Z,0.82
2018-03-21T02:43:02.245Z,0.84
2018-03-21T02:45:30.523Z,0.93
2018-03-21T02:47:58.785Z,1.01
2018-03-21T02:50:27.104Z,1.06
2018-03-21T02:52:55.375Z,0.93
2018-03-21T02:55:23.654Z,0.91
2018-03-21T02:57:51.939Z,1.04
2018-03-21T03:00:20.209Z,1.05
2018-03-21T03:02:48.476Z,1.00
2018-03-21T03:05:16.792Z,1.10
2018-03-21T03:07:45.070Z,1.10
2018-03-21T03:10:13.358Z,1.14
2018-03-21T03:12:41.619Z,1.21
2018-03-21T03:15:09.931Z,1.29
2018-03-21T03:17:38.211Z,1.12
2018-03-21T03:20:06.491Z,0.97
2018-03-21T03:22:34.783Z,0.86
2018-03-21T03:25:03.059Z,0.93
2018-03-21T03:27:31.335Z,0.87
2018-03-21T03:29:59.600Z,0.91
2018-03-21T03:32:27.888Z,0.83
2018-03-21T03:34:56.163Z,0.92
2018-03-21T03:37:24.444Z,0.89
2018-03-21T03:39:52.723Z,0.86
2018-03-21T03:42:21.025Z,0.77
2018-03-21T03:44:49.295Z,0.65
2018-03-21T03:47:18.416Z,0.47
2018-03-21T03:49:46.679Z,0.47
2018-03-21T03:52:14.973Z,0.51
2018-03-21T03:54:43.227Z,0.54
2018-03-21T03:57:11.511Z,0.55
2018-03-21T03:59:39.788Z,0.56
2018-03-21T04:02:08.078Z,0.53
2018-03-21T04:04:36.345Z,0.50
2018-03-21T04:07:05.743Z,0.67
2018-03-21T04:09:34.012Z,0.91
2018-03-21T04:12:02.294Z,0.69
2018-03-21T04:14:30.585Z,0.57
2018-03-21T04:16:58.899Z,0.55
2018-03-21T04:19:27.168Z,0.53
2018-03-21T04:21:55.455Z,0.39
2018-03-21T04:24:23.714Z,0.42
2018-03-21T04:26:52.004Z,0.42
2018-03-21T04:29:20.571Z,0.39
2018-03-21T04:31:48.844Z,0.31
2018-03-21T04:34:17.609Z,0.35
2018-03-21T04:36:45.864Z,0.29
2018-03-21T04:39:14.162Z,0.26
2018-03-21T04:41:42.435Z,0.28
2018-03-21T04:44:10.714Z,0.30
2018-03-21T04:46:38.990Z,0.18
2018-03-21T04:49:07.271Z,0.19
2018-03-21T04:51:35.528Z,0.28
2018-03-21T04:54:04.757Z,0.20
2018-03-21T04:56:33.022Z,0.09
2018-03-21T04:59:01.310Z,0.00
2018-03-21T05:01:29.582Z,0.16
2018-03-21T05:03:57.864Z,0.19
2018-03-21T05:06:26.137Z,0.16
2018-03-21T05:08:54.418Z,0.02
2018-03-21T05:11:22.692Z,-0.01
2018-03-21T05:13:50.983Z,-0.05
2018-03-21T05:16:19.244Z,-0.03
2018-03-21T05:18:47.551Z,0.02
2018-03-21T05:21:15.804Z,0.05
2018-03-21T05:23:44.093Z,0.04
2018-03-21T05:26:12.407Z,0.10
2018-03-21T05:28:40.784Z,0.06
2018-03-21T05:31:09.089Z,0.06
2018-03-21T05:33:37.346Z,-0.03
2018-03-21T05:36:05.636Z,-0.23
2018-03-21T05:38:33.927Z,-0.11
2018-03-21T05:41:02.238Z,-0.05
2018-03-21T05:43:30.513Z,-0.02
2018-03-21T05:45:58.849Z,0.02
2018-03-21T05:48:27.160Z,-0.14
2018-03-21T05:50:55.440Z,-0.06
2018-03-21T05:53:23.737Z,-0.03
2018-03-21T05:55:52.034Z,-0.04
2018-03-21T05:58:20.320Z,-0.04
2018-03-21T06:00:48.629Z,-0.05
2018-03-21T06:03:16.895Z,-0.02
2018-03-21T06:05:45.189Z,0.13
2018-03-21T06:08:13.452Z,0.21
2018-03-21T06:10:41.744Z,0.27
2018-03-21T06:13:10.015Z,0.23
2018-03-21T06:15:38.309Z,0.06
2018-03-21T06:18:06.581Z,-0.08
2018-03-21T06:20:34.879Z,0.08
2018-03-21T06:23:03.209Z,0.07
2018-03-21T06:25:31.493Z,0.20
2018-03-21T06:27:59.794Z,-0.05
2018-03-21T06:30:28.068Z,0.00
2018-03-21T06:32:56.387Z,0.11
2018-03-21T06:35:24.666Z,0.23
2018-03-21T06:37:53.046Z,0.26
2018-03-21T06:40:21.453Z,0.33
2018-03-21T06:42:49.824Z,0.34
2018-03-21T06:45:18.150Z,0.41
2018-03-21T06:47:46.465Z,0.60
2018-03-21T06:50:14.756Z,0.57
2018-03-21T06:52:43.064Z,0.59
2018-03-21T06:55:11.394Z,0.47
2018-03-21T06:57:39.700Z,0.51
2018-03-21T07:00:07.989Z,0.62
2018-03-21T07:02:36.358Z,0.83
2018-03-21T07:05:05.273Z,0.80
2018-03-21T07:07:33.586Z,0.76
2018-03-21T07:10:01.883Z,0.75
2018-03-21T07:12:30.409Z,0.96
2018-03-21T07:15:10.460Z,1.20
2018-03-21T07:17:38.781Z,1.24
2018-03-21T07:20:07.062Z,1.28
2018-03-21T07:22:35.336Z,1.52
2018-03-21T07:25:04.391Z,1.57
2018-03-21T07:27:32.663Z,1.85
2018-03-21T07:30:00.967Z,1.92
2018-03-21T07:32:29.268Z,2.19
2018-03-21T07:34:57.576Z,2.40
2018-03-21T07:37:25.855Z,2.16
2018-03-21T07:39:54.220Z,2.09
2018-03-21T07:42:22.509Z,2.21
2018-03-21T07:44:50.845Z,2.52
2018-03-21T07:47:19.122Z,2.62
2018-03-21T07:49:47.437Z,2.98
2018-03-21T07:52:15.760Z,3.10
2018-03-21T07:54:44.249Z,3.26
2018-03-21T07:57:12.537Z,3.23
2018-03-21T07:59:40.918Z,3.33
2018-03-21T08:02:09.212Z,3.34
2018-03-21T08:04:37.523Z,3.57
2018-03-21T08:07:05.875Z,3.88
2018-03-21T08:09:34.191Z,4.19
2018-03-21T08:12:02.470Z,4.20
2018-03-21T08:14:30.787Z,4.10
2018-03-21T08:16:59.076Z,4.03
2018-03-21T08:19:27.383Z,4.13
2018-03-21T08:21:55.712Z,4.29
2018-03-21T08:24:24.090Z,4.00
2018-03-21T08:26:52.348Z,4.33
2018-03-21T08:29:20.637Z,4.26
2018-03-21T08:31:48.943Z,4.52
2018-03-21T08:34:17.543Z,4.53
2018-03-21T08:36:45.866Z,4.62
2018-03-21T08:39:14.151Z,4.87
2018-03-21T08:41:42.484Z,5.02
2018-03-21T08:44:10.735Z,4.81
2018-03-21T08:46:39.032Z,4.95
2018-03-21T08:49:07.328Z,4.86
2018-03-21T08:51:35.662Z,5.13
2018-03-21T08:54:04.650Z,4.88
2018-03-21T08:56:33.084Z,4.83
2018-03-21T08:59:01.387Z,4.77
2018-03-21T09:01:29.767Z,4.75
2018-03-21T09:03:57.987Z,4.68
2018-03-21T09:06:26.280Z,4.57
2018-03-21T09:08:54.598Z,4.37
2018-03-21T09:11:22.889Z,4.20
2018-03-21T09:13:51.199Z,4.37
2018-03-21T09:16:19.492Z,4.93
2018-03-21T09:18:47.809Z,5.19
2018-03-21T09:21:16.107Z,5.23
2018-03-21T09:23:44.393Z,4.95
2018-03-21T09:26:12.697Z,5.32
2018-03-21T09:28:40.994Z,5.31
2018-03-21T09:31:09.351Z,5.35
2018-03-21T09:33:37.662Z,5.60
2018-03-21T09:36:05.960Z,5.78
2018-03-21T09:38:34.257Z,5.82
2018-03-21T09:41:02.637Z,5.64
2018-03-21T09:43:30.920Z,5.69
2018-03-21T09:45:59.212Z,5.56
2018-03-21T09:48:27.743Z,5.44
2018-03-21T09:50:55.963Z,5.65
2018-03-21T09:53:24.605Z,5.90
2018-03-21T09:55:52.874Z,5.61
2018-03-21T09:58:21.155Z,5.73
2018-03-21T10:00:49.483Z,6.18
2018-03-21T10:03:17.768Z,6.63
2018-03-21T10:05:46.036Z,6.68
2018-03-21T10:08:14.373Z,6.84
2018-03-21T10:10:42.662Z,6.84
2018-03-21T10:13:10.968Z,6.88
2018-03-21T10:15:39.252Z,6.92
2018-03-21T10:18:07.533Z,6.89
2018-03-21T10:20:35.808Z,6.60
2018-03-21T10:23:04.216Z,6.58
2018-03-21T10:25:32.496Z,7.07
2018-03-21T10:28:01.162Z,7.18
2018-03-21T10:30:29.489Z,7.07
2018-03-21T10:32:57.755Z,6.86
2018-03-21T10:35:26.200Z,6.78
2018-03-21T10:37:54.507Z,6.44
2018-03-21T10:40:22.816Z,6.25
2018-03-21T10:42:51.100Z,6.69
2018-03-21T10:45:19.539Z,7.18
2018-03-21T10:47:47.788Z,7.19
2018-03-21T10:50:16.090Z,6.89
2018-03-21T10:52:44.376Z,7.30
2018-03-21T10:55:12.684Z,7.64
2018-03-21T10:57:40.980Z,7.82
2018-03-21T11:00:09.323Z,7.99
2018-03-21T11:02:43.209Z,8.18
2018-03-21T11:05:11.525Z,8.20
2018-03-21T11:07:39.845Z,7.84
2018-03-21T11:10:08.130Z,7.80
2018-03-21T11:12:36.452Z,7.30
2018-03-21T11:15:05.384Z,7.75
2018-03-21T11:17:33.637Z,8.11
2018-03-21T11:20:01.907Z,8.43
2018-03-21T11:22:30.275Z,8.35
2018-03-21T11:24:58.539Z,8.41
2018-03-21T11:27:26.833Z,8.72
2018-03-21T11:29:55.148Z,8.58
2018-03-21T11:32:23.440Z,7.88
2018-03-21T11:34:51.744Z,8.21
2018-03-21T11:37:20.047Z,8.54
2018-03-21T11:39:48.355Z,8.44
2018-03-21T11:42:16.643Z,8.29
2018-03-21T11:44:44.934Z,8.44
2018-03-21T11:47:13.242Z,8.62
2018-03-21T11:49:41.575Z,8.07
2018-03-21T11:52:09.868Z,7.97
2018-03-21T11:54:38.145Z,7.62
2018-03-21T11:57:06.914Z,7.84
2018-03-21T11:59:35.168Z,8.45
2018-03-21T12:02:03.466Z,8.74
2018-03-21T12:04:31.756Z,9.02
2018-03-21T12:07:00.073Z,9.20
2018-03-21T12:09:28.633Z,9.24
2018-03-21T12:11:56.916Z,9.40
2018-03-21T12:14:25.196Z,9.54
2018-03-21T12:16:53.508Z,9.62
2018-03-21T12:19:21.789Z,9.71
2018-03-21T12:21:50.042Z,9.73
2018-03-21T12:24:18.328Z,9.92
2018-03-21T12:26:46.664Z,10.10
2018-03-21T12:29:15.000Z,10.15
2018-03-21T12:31:43.272Z,10.06
2018-03-21T12:34:11.576Z,10.38
2018-03-21T12:36:39.886Z,10.38
2018-03-21T12:39:08.176Z,10.33
2018-03-21T12:41:36.463Z,10.37
2018-03-21T12:44:05.488Z,10.29
2018-03-21T12:46:33.776Z,10.49
2018-03-21T12:49:02.089Z,10.59
2018-03-21T12:51:30.355Z,10.88
2018-03-21T12:53:58.662Z,11.10
2018-03-21T12:56:26.986Z,10.93
2018-03-21T12:58:55.233Z,11.08
2018-03-21T13:01:23.574Z,11.22
2018-03-21T13:03:52.676Z,10.97
2018-03-21T13:06:20.938Z,10.21
2018-03-21T13:08:49.237Z,10.41
2018-03-21T13:11:17.504Z,10.94
2018-03-21T13:13:46.093Z,11.13
2018-03-21T13:16:14.438Z,11.47
2018-03-21T13:18:43.323Z,11.29
2018-03-21T13:21:13.186Z,11.25
2018-03-21T13:23:41.478Z,11.10
2018-03-21T13:26:09.830Z,11.00
2018-03-21T13:28:38.110Z,11.54
2018-03-21T13:31:06.793Z,11.91
2018-03-21T13:33:35.128Z,11.76
2018-03-21T13:36:03.447Z,10.91
2018-03-21T13:38:31.759Z,11.67
2018-03-21T13:41:00.068Z,12.51
2018-03-21T13:43:28.380Z,12.49
2018-03-21T13:45:56.682Z,12.70
2018-03-21T13:48:24.994Z,12.67
2018-03-21T13:50:55.070Z,12.22
2018-03-21T13:53:23.497Z,12.31
2018-03-21T13:55:51.783Z,12.84
2018-03-21T13:58:20.565Z,12.09
2018-03-21T14:00:49.276Z,11.58
2018-03-21T14:03:17.571Z,12.36
2018-03-21T14:05:46.116Z,12.29
2018-03-21T14:08:14.430Z,11.87
2018-03-21T14:10:42.711Z,12.49
2018-03-21T14:13:10.994Z,13.07
2018-03-21T14:15:39.304Z,13.66
2018-03-21T14:18:07.623Z,14.12
2018-03-21T14:20:35.905Z,13.82
2018-03-21T14:23:04.473Z,13.55
2018-03-21T14:25:32.766Z,14.18
2018-03-21T14:28:01.101Z,14.07
2018-03-21T14:30:29.345Z,14.11
2018-03-21T14:32:57.759Z,13.98
2018-03-21T14:35:26.277Z,13.46
2018-03-21T14:37:55.381Z,13.61
2018-03-21T14:40:23.665Z,12.75
2018-03-21T14:42:51.994Z,13.18
2018-03-21T14:45:20.883Z,13.37
2018-03-21T14:47:49.203Z,14.33
2018-03-21T14:50:17.492Z,14.43
2018-03-21T14:52:45.805Z,14.27
2018-03-21T14:55:14.065Z,14.31
2018-03-21T14:57:42.411Z,14.86
2018-03-21T15:00:10.804Z,14.96
2018-03-21T15:02:39.064Z,15.05
2018-03-21T15:05:07.451Z,14.74
2018-03-21T15:07:35.732Z,14.91
2018-03-21T15:10:04.944Z,15.64
2018-03-21T15:12:33.192Z,16.31
2018-03-21T15:15:01.476Z,16.89
2018-03-21T15:17:29.828Z,14.44
2018-03-21T15:19:58.123Z,14.40
2018-03-21T15:22:26.413Z,13.98
2018-03-21T15:24:54.713Z,14.32
2018-03-21T15:27:22.989Z,14.26
2018-03-21T15:29:51.329Z,14.57
2018-03-21T15:32:19.613Z,14.61
2018-03-21T15:34:47.903Z,14.73
2018-03-21T15:37:16.208Z,14.24
2018-03-21T15:39:44.495Z,13.91
2018-03-21T15:42:12.767Z,13.30
2018-03-21T15:44:41.099Z,13.16
2018-03-21T15:47:09.372Z,13.11
2018-03-21T15:49:37.651Z,13.05
2018-03-21T15:52:05.919Z,12.75
2018-03-21T15:54:34.204Z,12.70
2018-03-21T15:57:02.584Z,12.58
2018-03-21T15:59:32.630Z,12.48
2018-03-21T16:02:01.400Z,12.38
2018-03-21T16:04:29.713Z,12.02
2018-03-21T16:06:58.063Z,11.85
2018-03-21T16:09:26.459Z,12.02
2018-03-21T16:11:54.722Z,11.63
2018-03-21T16:14:23.069Z,11.17
2018-03-21T16:16:51.378Z,11.26
2018-03-21T16:19:19.711Z,11.30
2018-03-21T16:21:47.976Z,10.89
2018-03-21T16:24:16.303Z,11.10
2018-03-21T16:26:44.603Z,11.15
2018-03-21T16:29:12.855Z,11.28
2018-03-21T16:31:41.211Z,11.18
2018-03-21T16:34:09.488Z,11.13
2018-03-21T16:36:37.848Z,11.11
2018-03-21T16:39:06.142Z,11.23
2018-03-21T16:41:35.121Z,11.03
2018-03-21T16:44:03.381Z,11.07
2018-03-21T16:46:32.160Z,11.03
2018-03-21T16:49:00.561Z,10.82
2018-03-21T16:51:28.873Z,10.79
2018-03-21T16:53:57.148Z,10.77
2018-03-21T16:56:25.548Z,10.81
2018-03-21T16:58:53.841Z,10.63
2018-03-21T17:01:22.180Z,10.70
2018-03-21T17:03:50.632Z,10.79
2018-03-21T17:06:18.942Z,10.64
2018-03-21T17:08:47.243Z,10.70
2018-03-21T17:11:15.512Z,10.55
2018-03-21T17:13:43.798Z,10.49
2018-03-21T17:16:12.235Z,10.39
2018-03-21T17:18:40.574Z,10.32
2018-03-21T17:21:08.817Z,10.37
2018-03-21T17:23:37.451Z,10.09
2018-03-21T17:26:05.738Z,10.16
2018-03-21T17:28:34.628Z,10.06
2018-03-21T17:31:02.963Z,10.13
2018-03-21T17:33:31.280Z,10.06
2018-03-21T17:35:59.933Z,10.03
2018-03-21T17:38:28.272Z,9.88
2018-03-21T17:40:56.555Z,9.72
2018-03-21T17:43:24.925Z,9.73
2018-03-21T17:45:53.202Z,9.77
2018-03-21T17:48:21.529Z,9.75
2018-03-21T17:50:49.792Z,9.64
2018-03-21T17:53:19.066Z,9.43
2018-03-21T17:55:47.324Z,9.54
2018-03-21T17:58:15.630Z,9.44
2018-03-21T18:00:43.932Z,9.39
2018-03-21T18:03:12.240Z,9.30
2018-03-21T18:05:40.519Z,9.17
2018-03-21T18:08:08.841Z,9.00
2018-03-21T18:10:37.091Z,8.78
2018-03-21T18:13:06.023Z,8.77
2018-03-21T18:15:34.330Z,8.69
2018-03-21T18:18:02.612Z,8.68
2018-03-21T18:20:30.952Z,8.50
2018-03-21T18:22:59.240Z,8.48
2018-03-21T18:25:27.489Z,8.45
2018-03-21T18:27:55.766Z,8.47
2018-03-21T18:30:24.115Z,8.26
2018-03-21T18:32:52.406Z,8.13
2018-03-21T18:35:20.779Z,8.14
2018-03-21T18:37:49.620Z,8.16
2018-03-21T18:40:17.902Z,8.00
2018-03-21T18:42:46.211Z,7.81
2018-03-21T18:45:14.553Z,7.62
2018-03-21T18:47:42.810Z,7.45
2018-03-21T18:50:11.159Z,7.20
2018-03-21T18:52:39.481Z,7.10
2018-03-21T18:55:07.885Z,6.88
2018-03-21T18:57:36.137Z,6.94
2018-03-21T19:00:04.990Z,6.94
2018-03-21T19:02:33.358Z,7.02
2018-03-21T19:05:01.967Z,6.83
2018-03-21T19:07:30.244Z,6.82
2018-03-21T19:09:58.566Z,6.70
2018-03-21T19:12:26.968Z,6.72
2018-03-21T19:14:55.282Z,6.71
2018-03-21T19:17:23.543Z,6.56
2018-03-21T19:19:51.886Z,6.16
2018-03-21T19:22:20.202Z,5.96
2018-03-21T19:24:48.509Z,6.00
2018-03-21T19:27:16.806Z,6.02
2018-03-21T19:29:45.070Z,6.04
2018-03-21T19:32:13.381Z,6.05
2018-03-21T19:34:42.400Z,6.03
2018-03-21T19:37:11.066Z,5.78
2018-03-21T19:39:39.368Z,5.67
2018-03-21T19:42:07.658Z,5.54
2018-03-21T19:44:36.845Z,5.63
2018-03-21T19:47:05.808Z,5.61
2018-03-21T19:49:34.107Z,5.48
2018-03-21T19:52:02.473Z,5.33
2018-03-21T19:54:30.758Z,5.30
2018-03-21T19:56:59.061Z,5.20
2018-03-21T19:59:27.353Z,5.24
2018-03-21T20:01:55.982Z,5.27
2018-03-21T20:04:24.343Z,5.40
2018-03-21T20:06:52.769Z,5.38
2018-03-21T20:09:21.016Z,5.36
2018-03-21T20:11:49.432Z,5.29
2018-03-21T20:14:17.697Z,5.24
2018-03-21T20:16:46.019Z,5.13
2018-03-21T20:19:14.347Z,5.15
2018-03-21T20:21:42.630Z,4.88
2018-03-21T20:24:10.889Z,4.90
2018-03-21T20:26:39.177Z,4.90
2018-03-21T20:29:07.485Z,4.72
2018-03-21T20:31:35.744Z,4.60
2018-03-21T20:34:05.066Z,4.61
2018-03-21T20:36:33.363Z,4.66
2018-03-21T20:39:01.675Z,4.74
2018-03-21T20:41:29.931Z,4.70
2018-03-21T20:43:59.114Z,4.38
2018-03-21T20:46:27.375Z,4.26
2018-03-21T20:48:55.705Z,4.37
2018-03-21T20:51:23.971Z,4.50
2018-03-21T20:53:52.290Z,4.45
2018-03-21T20:56:20.621Z,4.28
2018-03-21T20:58:48.907Z,4.20
2018-03-21T21:01:17.190Z,4.17
2018-03-21T21:03:45.513Z,4.23
2018-03-21T21:06:14.114Z,4.21
2018-03-21T21:08:42.665Z,4.20
2018-03-21T21:11:11.337Z,4.19
2018-03-21T21:13:39.645Z,4.17
2018-03-21T21:16:08.063Z,4.20
2018-03-21T21:18:36.378Z,4.40
2018-03-21T21:21:05.305Z,4.57
2018-03-21T21:23:33.668Z,4.38
2018-03-21T21:26:02.098Z,4.24
2018-03-21T21:28:30.870Z,4.17
2018-03-21T21:31:03.090Z,4.11
2018-03-21T21:33:31.524Z,4.08
2018-03-21T21:35:59.825Z,3.78
2018-03-21T21:38:28.111Z,3.78
2018-03-21T21:40:56.415Z,3.57
2018-03-21T21:43:24.728Z,3.60
2018-03-21T21:45:53.053Z,3.64
2018-03-21T21:48:21.335Z,3.57
2018-03-21T21:50:49.613Z,3.29
2018-03-21T21:53:17.913Z,3.32
2018-03-21T21:55:46.234Z,3.53
2018-03-21T21:58:14.576Z,3.65
2018-03-21T22:00:42.922Z,3.77
2018-03-21T22:03:11.196Z,3.79
2018-03-21T22:05:39.513Z,3.78
2018-03-21T22:08:07.919Z,3.77
2018-03-21T22:10:36.320Z,3.78
2018-03-21T22:13:04.939Z,3.88
2018-03-21T22:15:33.357Z,3.85
2018-03-21T22:18:01.611Z,3.93
2018-03-21T22:20:29.943Z,3.84
2018-03-21T22:22:58.237Z,3.81
2018-03-21T22:25:26.517Z,3.85
2018-03-21T22:27:54.769Z,3.85
2018-03-21T22:30:23.087Z,3.90
2018-03-21T22:32:51.348Z,4.04
2018-03-21T22:35:19.620Z,4.39
2018-03-21T22:37:47.968Z,4.33
2018-03-21T22:40:16.263Z,4.46
2018-03-21T22:42:44.631Z,4.42
2018-03-21T22:45:12.886Z,4.19
2018-03-21T22:47:41.186Z,4.32
2018-03-21T22:50:09.464Z,4.21
2018-03-21T22:52:37.744Z,4.09
2018-03-21T22:55:05.999Z,4.00
2018-03-21T22:57:34.320Z,3.92
2018-03-21T23:00:02.583Z,3.97
2018-03-21T23:02:30.891Z,3.76
2018-03-21T23:04:59.152Z,3.64
2018-03-21T23:07:27.515Z,3.67
2018-03-21T23:09:55.777Z,3.58
2018-03-21T23:12:24.299Z,3.39
2018-03-21T23:14:52.612Z,3.29
2018-03-21T23:17:20.914Z,3.33
2018-03-21T23:19:49.586Z,3.29
2018-03-21T23:22:17.946Z,3.36
2018-03-21T23:24:46.259Z,3.44
2018-03-21T23:27:14.536Z,3.21
2018-03-21T23:29:42.811Z,2.96
2018-03-21T23:32:11.091Z,3.12
2018-03-21T23:34:39.407Z,3.11
2018-03-21T23:37:07.756Z,3.11
2018-03-21T23:39:36.091Z,3.12
2018-03-21T23:42:04.408Z,3.17
2018-03-21T23:44:32.732Z,3.18
2018-03-21T23:47:01.035Z,3.17
2018-03-21T23:49:29.403Z,3.05
2018-03-21T23:51:57.685Z,3.07
2018-03-21T23:54:25.979Z,2.99
2018-03-21T23:56:54.269Z,2.76
2018-03-21T23:59:22.532Z,2.56
